Tallahassee Regional Airport Tallahassee US
ICAO: KTLH
IATA: TLH
Category: Large
Scheduled Services: Yes

Elevation: 81 ft
TransAlt. 18000 ft.

Airport Communications:
APP/DEP:128.7
ATIS:119.45
CLNC DEL:126.65
CTAF:118.7
GND:121.9
GAINESVILLE RDO:122.2
TWR:118.7
UNICOM:122.95

KTLH Zoom In..

Runways:

(A) RW 09 length 8003 ft width 150 ft
---- / hdg 92

(B) RW 18 length 7000 ft width 150 ft
---- / hdg 182

(C) RW 27 length 8003 ft width 150 ft
ILS 111.90 / hdg 272

(D) RW 36 length 7000 ft width 150 ft
ILS 110.30 / hdg 2

Location; KTLH
Day. 29 / Time. 22.53 Zulu
* Altimeter: 30.09
* Temperature: 27° c. 80.6°f.
* Wind from: KTL° Speed H kn.
Dewpoint: 19° c.
Visibility: 10 Statute Miles.
Clouds: Scattered 25000 ft.

KTLH 292253Z 15009KT 10SM SCT250 27/19 A3009 RMK AO2 SLP187 T02720194


Wind From KTL°
Speed H kn.

 
 
jpsmedia worldairports.se 2020   terms of use